sensor_id;sensor_type;location;lat;lon;timestamp;pressure;altitude;pressure_sealevel;temperature;humidity
68712;BME280;55690;51.566;19.198;2023-09-30T00:01:09;101868.87;;;18.67;82.54
68712;BME280;55690;51.566;19.198;2023-09-30T00:05:14;101873.27;;;18.79;81.91
68712;BME280;55690;51.566;19.198;2023-09-30T00:09:20;101867.73;;;18.70;82.59
68712;BME280;55690;51.566;19.198;2023-09-30T00:13:27;101855.98;;;18.68;82.32
68712;BME280;55690;51.566;19.198;2023-09-30T00:17:33;101865.98;;;18.69;82.89
68712;BME280;55690;51.566;19.198;2023-09-30T00:21:39;101863.69;;;18.74;83.32
68712;BME280;55690;51.566;19.198;2023-09-30T00:25:45;101862.22;;;18.70;82.87
68712;BME280;55690;51.566;19.198;2023-09-30T00:29:51;101861.48;;;18.68;83.17
68712;BME280;55690;51.566;19.198;2023-09-30T00:33:57;101862.08;;;18.71;83.44
68712;BME280;55690;51.566;19.198;2023-09-30T00:38:04;101856.08;;;18.56;83.49
68712;BME280;55690;51.566;19.198;2023-09-30T00:42:10;101851.20;;;18.60;83.46
68712;BME280;55690;51.566;19.198;2023-09-30T00:46:26;101859.70;;;18.57;83.58
68712;BME280;55690;51.566;19.198;2023-09-30T00:50:28;101850.30;;;18.59;83.49
68712;BME280;55690;51.566;19.198;2023-09-30T00:54:30;101855.75;;;18.50;84.08
68712;BME280;55690;51.566;19.198;2023-09-30T00:58:35;101843.93;;;18.59;83.26
68712;BME280;55690;51.566;19.198;2023-09-30T01:02:41;101852.95;;;18.61;83.53
68712;BME280;55690;51.566;19.198;2023-09-30T01:06:47;101855.12;;;18.67;84.57
68712;BME280;55690;51.566;19.198;2023-09-30T01:10:53;101854.39;;;18.65;85.28
68712;BME280;55690;51.566;19.198;2023-09-30T01:14:59;101863.10;;;18.70;85.62
68712;BME280;55690;51.566;19.198;2023-09-30T01:19:05;101858.14;;;18.64;85.43
68712;BME280;55690;51.566;19.198;2023-09-30T01:23:11;101862.95;;;18.62;87.50
68712;BME280;55690;51.566;19.198;2023-09-30T01:27:17;101866.48;;;18.53;89.82
68712;BME280;55690;51.566;19.198;2023-09-30T01:31:24;101861.80;;;18.44;90.93
68712;BME280;55690;51.566;19.198;2023-09-30T01:35:30;101868.19;;;18.23;92.87
68712;BME280;55690;51.566;19.198;2023-09-30T01:39:36;101863.07;;;18.09;94.09
68712;BME280;55690;51.566;19.198;2023-09-30T01:43:42;101859.84;;;18.04;94.91
68712;BME280;55690;51.566;19.198;2023-09-30T01:47:48;101863.52;;;17.93;94.64
68712;BME280;55690;51.566;19.198;2023-09-30T01:51:54;101855.15;;;17.95;96.00
68712;BME280;55690;51.566;19.198;2023-09-30T01:56:01;101851.66;;;17.93;96.34
68712;BME280;55690;51.566;19.198;2023-09-30T02:00:07;101854.53;;;17.91;93.56
68712;BME280;55690;51.566;19.198;2023-09-30T02:04:13;101861.24;;;17.99;95.09
68712;BME280;55690;51.566;19.198;2023-09-30T02:08:19;101873.38;;;17.96;99.54
68712;BME280;55690;51.566;19.198;2023-09-30T02:12:27;101886.51;;;17.92;99.66
68712;BME280;55690;51.566;19.198;2023-09-30T02:16:31;101888.78;;;17.87;100.00
68712;BME280;55690;51.566;19.198;2023-09-30T02:20:38;101877.66;;;17.57;100.00
68712;BME280;55690;51.566;19.198;2023-09-30T02:24:44;101862.48;;;17.42;100.00
68712;BME280;55690;51.566;19.198;2023-09-30T02:28:51;101878.34;;;17.38;100.00
68712;BME280;55690;51.566;19.198;2023-09-30T02:32:57;101869.72;;;17.43;100.00
68712;BME280;55690;51.566;19.198;2023-09-30T02:37:02;101856.83;;;17.54;100.00
68712;BME280;55690;51.566;19.198;2023-09-30T02:41:09;101853.60;;;17.49;100.00
68712;BME280;55690;51.566;19.198;2023-09-30T02:45:15;101858.95;;;17.51;100.00
68712;BME280;55690;51.566;19.198;2023-09-30T02:49:21;101866.33;;;17.50;100.00
68712;BME280;55690;51.566;19.198;2023-09-30T02:53:27;101861.58;;;17.52;100.00
68712;BME280;55690;51.566;19.198;2023-09-30T02:57:33;101856.64;;;17.35;100.00
68712;BME280;55690;51.566;19.198;2023-09-30T03:01:39;101856.13;;;17.41;100.00
68712;BME280;55690;51.566;19.198;2023-09-30T03:05:45;101860.36;;;17.45;100.00
68712;BME280;55690;51.566;19.198;2023-09-30T03:09:52;101857.94;;;17.31;100.00
68712;BME280;55690;51.566;19.198;2023-09-30T03:13:58;101857.19;;;17.29;100.00
68712;BME280;55690;51.566;19.198;2023-09-30T03:18:04;101861.55;;;17.32;100.00
68712;BME280;55690;51.566;19.198;2023-09-30T03:22:10;101854.77;;;17.36;100.00
68712;BME280;55690;51.566;19.198;2023-09-30T03:26:16;101850.23;;;17.14;100.00
68712;BME280;55690;51.566;19.198;2023-09-30T03:30:22;101844.13;;;17.10;100.00
68712;BME280;55690;51.566;19.198;2023-09-30T03:34:29;101842.16;;;17.01;100.00
68712;BME280;55690;51.566;19.198;2023-09-30T03:38:35;101840.25;;;17.13;100.00
68712;BME280;55690;51.566;19.198;2023-09-30T03:42:41;101848.23;;;17.16;100.00
68712;BME280;55690;51.566;19.198;2023-09-30T03:46:47;101853.49;;;17.08;100.00
68712;BME280;55690;51.566;19.198;2023-09-30T03:50:53;101863.58;;;17.18;100.00
68712;BME280;55690;51.566;19.198;2023-09-30T03:55:00;101884.91;;;17.15;100.00
68712;BME280;55690;51.566;19.198;2023-09-30T03:59:06;101892.90;;;17.18;100.00
68712;BME280;55690;51.566;19.198;2023-09-30T04:03:12;101897.26;;;17.20;100.00
68712;BME280;55690;51.566;19.198;2023-09-30T04:07:18;101901.88;;;17.20;100.00
68712;BME280;55690;51.566;19.198;2023-09-30T04:11:24;101895.26;;;17.22;100.00
68712;BME280;55690;51.566;19.198;2023-09-30T04:15:30;101880.54;;;17.23;100.00
68712;BME280;55690;51.566;19.198;2023-09-30T04:19:36;101882.17;;;17.15;100.00
68712;BME280;55690;51.566;19.198;2023-09-30T04:23:43;101881.79;;;17.19;100.00
68712;BME280;55690;51.566;19.198;2023-09-30T04:27:49;101884.91;;;17.15;100.00
68712;BME280;55690;51.566;19.198;2023-09-30T04:31:58;101897.28;;;16.98;100.00
68712;BME280;55690;51.566;19.198;2023-09-30T04:36:02;101912.63;;;17.01;100.00
68712;BME280;55690;51.566;19.198;2023-09-30T04:40:08;101913.38;;;17.03;100.00
68712;BME280;55690;51.566;19.198;2023-09-30T04:44:16;101908.51;;;16.95;100.00
68712;BME280;55690;51.566;19.198;2023-09-30T04:48:20;101921.89;;;16.88;100.00
68712;BME280;55690;51.566;19.198;2023-09-30T04:52:26;101927.47;;;17.09;100.00
68712;BME280;55690;51.566;19.198;2023-09-30T04:56:32;101933.83;;;17.10;100.00
68712;BME280;55690;51.566;19.198;2023-09-30T05:00:38;101931.96;;;17.10;100.00
68712;BME280;55690;51.566;19.198;2023-09-30T05:04:44;101935.82;;;17.08;100.00
68712;BME280;55690;51.566;19.198;2023-09-30T05:08:50;101931.59;;;17.04;100.00
68712;BME280;55690;51.566;19.198;2023-09-30T05:12:57;101931.82;;;17.23;100.00
68712;BME280;55690;51.566;19.198;2023-09-30T05:17:03;101929.52;;;17.39;100.00
68712;BME280;55690;51.566;19.198;2023-09-30T05:21:09;101936.49;;;17.43;100.00
68712;BME280;55690;51.566;19.198;2023-09-30T05:25:16;101954.57;;;17.57;100.00
68712;BME280;55690;51.566;19.198;2023-09-30T05:29:21;101940.60;;;17.49;100.00
68712;BME280;55690;51.566;19.198;2023-09-30T05:33:27;101954.46;;;17.47;100.00
68712;BME280;55690;51.566;19.198;2023-09-30T05:37:34;101959.08;;;17.47;100.00
68712;BME280;55690;51.566;19.198;2023-09-30T05:41:40;101961.94;;;17.56;100.00
68712;BME280;55690;51.566;19.198;2023-09-30T05:45:46;101969.55;;;17.53;100.00
68712;BME280;55690;51.566;19.198;2023-09-30T05:49:52;101978.92;;;17.50;100.00
68712;BME280;55690;51.566;19.198;2023-09-30T05:53:58;101979.28;;;17.57;100.00
68712;BME280;55690;51.566;19.198;2023-09-30T05:58:04;101982.41;;;17.63;100.00
68712;BME280;55690;51.566;19.198;2023-09-30T06:02:11;101976.91;;;17.63;100.00
68712;BME280;55690;51.566;19.198;2023-09-30T06:06:17;101979.65;;;17.63;100.00
68712;BME280;55690;51.566;19.198;2023-09-30T06:10:23;101979.55;;;17.65;100.00
68712;BME280;55690;51.566;19.198;2023-09-30T06:14:30;101982.47;;;17.84;100.00
68712;BME280;55690;51.566;19.198;2023-09-30T06:18:35;101986.45;;;17.91;100.00
68712;BME280;55690;51.566;19.198;2023-09-30T06:22:45;101991.81;;;17.93;100.00
68712;BME280;55690;51.566;19.198;2023-09-30T06:26:48;101986.63;;;18.11;100.00
68712;BME280;55690;51.566;19.198;2023-09-30T06:30:54;101992.59;;;18.16;100.00
68712;BME280;55690;51.566;19.198;2023-09-30T06:35:00;101995.62;;;18.13;100.00
68712;BME280;55690;51.566;19.198;2023-09-30T06:39:06;102009.84;;;18.18;100.00
68712;BME280;55690;51.566;19.198;2023-09-30T06:43:15;102016.80;;;18.22;100.00
68712;BME280;55690;51.566;19.198;2023-09-30T06:47:18;102016.05;;;18.20;100.00
68712;BME280;55690;51.566;19.198;2023-09-30T06:51:25;102006.66;;;18.22;100.00
68712;BME280;55690;51.566;19.198;2023-09-30T06:55:31;102024.86;;;18.35;100.00
68712;BME280;55690;51.566;19.198;2023-09-30T06:59:37;102032.98;;;18.36;100.00
68712;BME280;55690;51.566;19.198;2023-09-30T07:03:43;102032.50;;;18.31;100.00
68712;BME280;55690;51.566;19.198;2023-09-30T07:07:49;102039.63;;;18.34;100.00
68712;BME280;55690;51.566;19.198;2023-09-30T07:11:55;102040.97;;;18.39;100.00
68712;BME280;55690;51.566;19.198;2023-09-30T07:16:02;102037.43;;;18.48;100.00
68712;BME280;55690;51.566;19.198;2023-09-30T07:20:08;102037.64;;;18.56;100.00
68712;BME280;55690;51.566;19.198;2023-09-30T07:24:14;102039.52;;;18.77;100.00
68712;BME280;55690;51.566;19.198;2023-09-30T07:28:20;102047.52;;;18.80;100.00
68712;BME280;55690;51.566;19.198;2023-09-30T07:32:26;102057.38;;;18.82;100.00
68712;BME280;55690;51.566;19.198;2023-09-30T07:36:32;102062.55;;;18.97;100.00
68712;BME280;55690;51.566;19.198;2023-09-30T07:40:39;102074.47;;;19.07;100.00
68712;BME280;55690;51.566;19.198;2023-09-30T07:44:45;102074.50;;;19.37;100.00
68712;BME280;55690;51.566;19.198;2023-09-30T07:48:51;102076.24;;;19.38;100.00
68712;BME280;55690;51.566;19.198;2023-09-30T07:52:57;102067.88;;;19.19;100.00
68712;BME280;55690;51.566;19.198;2023-09-30T07:57:03;102071.55;;;19.29;100.00
68712;BME280;55690;51.566;19.198;2023-09-30T08:01:09;102077.61;;;19.23;100.00
68712;BME280;55690;51.566;19.198;2023-09-30T08:05:16;102091.92;;;19.17;100.00
68712;BME280;55690;51.566;19.198;2023-09-30T08:09:22;102101.52;;;19.22;100.00
68712;BME280;55690;51.566;19.198;2023-09-30T08:13:28;102097.16;;;19.20;100.00
68712;BME280;55690;51.566;19.198;2023-09-30T08:17:35;102106.82;;;19.35;100.00
68712;BME280;55690;51.566;19.198;2023-09-30T08:21:40;102097.45;;;19.47;100.00
68712;BME280;55690;51.566;19.198;2023-09-30T08:25:46;102096.72;;;19.45;100.00
68712;BME280;55690;51.566;19.198;2023-09-30T08:29:53;102095.16;;;19.52;100.00
68712;BME280;55690;51.566;19.198;2023-09-30T08:33:59;102102.50;;;19.42;100.00
68712;BME280;55690;51.566;19.198;2023-09-30T08:38:05;102100.77;;;19.41;100.00
68712;BME280;55690;51.566;19.198;2023-09-30T08:42:11;102108.56;;;19.36;100.00
68712;BME280;55690;51.566;19.198;2023-09-30T08:46:18;102115.27;;;19.43;100.00
68712;BME280;55690;51.566;19.198;2023-09-30T08:50:24;102108.03;;;19.21;100.00
68712;BME280;55690;51.566;19.198;2023-09-30T08:54:31;102118.84;;;19.34;100.00
68712;BME280;55690;51.566;19.198;2023-09-30T08:58:36;102118.04;;;19.22;100.00
68712;BME280;55690;51.566;19.198;2023-09-30T09:02:42;102122.14;;;19.28;100.00
68712;BME280;55690;51.566;19.198;2023-09-30T09:06:48;102146.95;;;18.86;100.00
68712;BME280;55690;51.566;19.198;2023-09-30T09:10:56;102153.18;;;18.88;100.00
68712;BME280;55690;51.566;19.198;2023-09-30T09:15:01;102148.48;;;18.79;100.00
68712;BME280;55690;51.566;19.198;2023-09-30T09:19:13;102160.30;;;18.59;100.00
68712;BME280;55690;51.566;19.198;2023-09-30T09:23:18;102166.94;;;18.56;100.00
68712;BME280;55690;51.566;19.198;2023-09-30T09:27:19;102173.96;;;18.49;100.00
68712;BME280;55690;51.566;19.198;2023-09-30T09:31:34;102190.61;;;18.37;100.00
68712;BME280;55690;51.566;19.198;2023-09-30T09:35:38;102191.13;;;18.31;100.00
68712;BME280;55690;51.566;19.198;2023-09-30T09:39:59;102197.19;;;18.02;100.00
68712;BME280;55690;51.566;19.198;2023-09-30T09:43:59;102201.30;;;17.85;100.00
68712;BME280;55690;51.566;19.198;2023-09-30T09:48:01;102220.80;;;17.71;100.00
68712;BME280;55690;51.566;19.198;2023-09-30T09:52:06;102229.40;;;17.78;100.00
68712;BME280;55690;51.566;19.198;2023-09-30T09:56:09;102231.80;;;17.71;100.00
68712;BME280;55690;51.566;19.198;2023-09-30T10:00:18;102229.05;;;17.71;100.00
68712;BME280;55690;51.566;19.198;2023-09-30T10:04:21;102234.41;;;17.73;100.00
68712;BME280;55690;51.566;19.198;2023-09-30T10:08:36;102239.35;;;17.56;100.00
68712;BME280;55690;51.566;19.198;2023-09-30T10:12:39;102236.84;;;17.53;100.00
68712;BME280;55690;51.566;19.198;2023-09-30T10:16:48;102237.41;;;17.35;100.00
68712;BME280;55690;51.566;19.198;2023-09-30T10:20:50;102243.15;;;17.67;100.00
68712;BME280;55690;51.566;19.198;2023-09-30T10:24:55;102230.55;;;17.75;100.00
68712;BME280;55690;51.566;19.198;2023-09-30T10:29:08;102245.13;;;18.20;100.00
68712;BME280;55690;51.566;19.198;2023-09-30T10:33:10;102243.16;;;18.11;100.00
68712;BME280;55690;51.566;19.198;2023-09-30T10:37:21;102243.42;;;18.19;100.00
68712;BME280;55690;51.566;19.198;2023-09-30T10:45:44;102248.63;;;18.34;100.00
68712;BME280;55690;51.566;19.198;2023-09-30T10:49:47;102251.13;;;18.25;100.00
68712;BME280;55690;51.566;19.198;2023-09-30T10:53:54;102233.17;;;18.10;100.00
68712;BME280;55690;51.566;19.198;2023-09-30T10:58:01;102236.00;;;18.31;100.00
68712;BME280;55690;51.566;19.198;2023-09-30T11:06:19;102232.35;;;18.42;100.00
68712;BME280;55690;51.566;19.198;2023-09-30T11:10:22;102234.36;;;18.51;100.00
68712;BME280;55690;51.566;19.198;2023-09-30T11:14:30;102223.36;;;18.62;100.00
68712;BME280;55690;51.566;19.198;2023-09-30T11:18:32;102231.32;;;18.65;100.00
68712;BME280;55690;51.566;19.198;2023-09-30T11:22:34;102228.05;;;18.71;100.00
68712;BME280;55690;51.566;19.198;2023-09-30T11:26:37;102226.43;;;18.69;100.00
68712;BME280;55690;51.566;19.198;2023-09-30T11:34:53;102232.04;;;18.78;97.63
68712;BME280;55690;51.566;19.198;2023-09-30T11:38:54;102234.56;;;18.70;95.28
68712;BME280;55690;51.566;19.198;2023-09-30T11:47:12;102239.22;;;18.58;95.41
68712;BME280;55690;51.566;19.198;2023-09-30T11:51:13;102239.87;;;18.62;96.02
68712;BME280;55690;51.566;19.198;2023-09-30T11:55:15;102245.93;;;18.77;99.23
68712;BME280;55690;51.566;19.198;2023-09-30T11:59:20;102230.77;;;18.82;93.50
68712;BME280;55690;51.566;19.198;2023-09-30T12:03:23;102231.40;;;19.07;91.10
68712;BME280;55690;51.566;19.198;2023-09-30T12:07:26;102232.31;;;19.28;88.81
68712;BME280;55690;51.566;19.198;2023-09-30T12:11:32;102230.98;;;19.43;92.09
68712;BME280;55690;51.566;19.198;2023-09-30T12:15:39;102225.13;;;19.57;86.44
68712;BME280;55690;51.566;19.198;2023-09-30T12:19:45;102224.18;;;19.68;86.28
68712;BME280;55690;51.566;19.198;2023-09-30T12:23:51;102222.43;;;19.67;83.58
68712;BME280;55690;51.566;19.198;2023-09-30T12:27:57;102219.74;;;19.77;84.74
68712;BME280;55690;51.566;19.198;2023-09-30T12:32:04;102221.89;;;19.73;83.38
68712;BME280;55690;51.566;19.198;2023-09-30T12:36:09;102222.81;;;19.83;80.67
68712;BME280;55690;51.566;19.198;2023-09-30T12:40:16;102238.16;;;19.76;80.19
68712;BME280;55690;51.566;19.198;2023-09-30T12:44:22;102242.67;;;19.56;80.33
68712;BME280;55690;51.566;19.198;2023-09-30T12:48:28;102243.17;;;19.50;83.22
68712;BME280;55690;51.566;19.198;2023-09-30T12:52:35;102249.13;;;19.46;84.75
68712;BME280;55690;51.566;19.198;2023-09-30T12:56:40;102249.59;;;19.51;84.96
68712;BME280;55690;51.566;19.198;2023-09-30T13:00:46;102249.84;;;19.27;83.43
68712;BME280;55690;51.566;19.198;2023-09-30T13:04:52;102255.62;;;19.24;87.41
68712;BME280;55690;51.566;19.198;2023-09-30T13:08:59;102253.65;;;19.15;86.69
68712;BME280;55690;51.566;19.198;2023-09-30T13:13:05;102252.94;;;19.34;87.08
68712;BME280;55690;51.566;19.198;2023-09-30T13:17:11;102246.61;;;19.22;88.33
68712;BME280;55690;51.566;19.198;2023-09-30T13:21:18;102249.97;;;19.25;88.43
68712;BME280;55690;51.566;19.198;2023-09-30T13:25:23;102254.48;;;19.26;84.59
68712;BME280;55690;51.566;19.198;2023-09-30T13:29:29;102254.16;;;19.41;85.82
68712;BME280;55690;51.566;19.198;2023-09-30T13:33:36;102263.16;;;19.43;85.06
68712;BME280;55690;51.566;19.198;2023-09-30T13:37:42;102259.24;;;19.24;83.86
68712;BME280;55690;51.566;19.198;2023-09-30T13:41:48;102259.73;;;19.30;83.09
68712;BME280;55690;51.566;19.198;2023-09-30T13:45:54;102262.39;;;19.20;82.37
68712;BME280;55690;51.566;19.198;2023-09-30T13:50:00;102269.83;;;19.08;82.64
68712;BME280;55690;51.566;19.198;2023-09-30T13:54:07;102256.51;;;18.92;81.61
68712;BME280;55690;51.566;19.198;2023-09-30T13:58:13;102261.12;;;19.03;81.60
68712;BME280;55690;51.566;19.198;2023-09-30T14:02:19;102261.79;;;18.84;83.57
68712;BME280;55690;51.566;19.198;2023-09-30T14:06:25;102260.04;;;18.83;83.09
68712;BME280;55690;51.566;19.198;2023-09-30T14:10:31;102273.77;;;18.94;82.72
68712;BME280;55690;51.566;19.198;2023-09-30T14:14:37;102265.19;;;19.09;81.79
68712;BME280;55690;51.566;19.198;2023-09-30T14:18:43;102279.92;;;19.19;80.68
68712;BME280;55690;51.566;19.198;2023-09-30T14:22:50;102278.70;;;19.12;82.17
68712;BME280;55690;51.566;19.198;2023-09-30T14:26:56;102282.33;;;19.12;84.02
68712;BME280;55690;51.566;19.198;2023-09-30T14:31:05;102277.21;;;19.08;81.45
68712;BME280;55690;51.566;19.198;2023-09-30T14:35:09;102274.13;;;19.01;82.38
68712;BME280;55690;51.566;19.198;2023-09-30T14:39:14;102277.18;;;18.87;79.48
68712;BME280;55690;51.566;19.198;2023-09-30T14:43:20;102282.72;;;18.65;79.50
68712;BME280;55690;51.566;19.198;2023-09-30T14:47:26;102288.23;;;18.65;81.96
68712;BME280;55690;51.566;19.198;2023-09-30T14:51:34;102296.49;;;18.53;83.03
68712;BME280;55690;51.566;19.198;2023-09-30T14:55:39;102306.48;;;18.21;82.55
68712;BME280;55690;51.566;19.198;2023-09-30T14:59:45;102309.65;;;18.16;85.71
68712;BME280;55690;51.566;19.198;2023-09-30T15:03:51;102305.87;;;17.95;82.20
68712;BME280;55690;51.566;19.198;2023-09-30T15:07:57;102321.73;;;17.91;85.92
68712;BME280;55690;51.566;19.198;2023-09-30T15:12:04;102310.49;;;17.94;86.98
68712;BME280;55690;51.566;19.198;2023-09-30T15:16:16;102308.96;;;17.79;87.48
68712;BME280;55690;51.566;19.198;2023-09-30T15:20:18;102309.59;;;17.83;86.90
68712;BME280;55690;51.566;19.198;2023-09-30T15:24:22;102319.96;;;17.68;90.62
68712;BME280;55690;51.566;19.198;2023-09-30T15:28:28;102334.02;;;17.63;92.46
68712;BME280;55690;51.566;19.198;2023-09-30T15:32:34;102334.25;;;17.60;91.52
68712;BME280;55690;51.566;19.198;2023-09-30T15:36:40;102332.58;;;17.71;93.37
68712;BME280;55690;51.566;19.198;2023-09-30T15:40:52;102346.67;;;17.66;91.06
68712;BME280;55690;51.566;19.198;2023-09-30T15:44:54;102335.61;;;17.55;91.56
68712;BME280;55690;51.566;19.198;2023-09-30T15:48:59;102338.48;;;17.53;89.95
68712;BME280;55690;51.566;19.198;2023-09-30T15:53:05;102347.37;;;17.33;92.56
68712;BME280;55690;51.566;19.198;2023-09-30T15:57:11;102357.24;;;17.36;94.58
68712;BME280;55690;51.566;19.198;2023-09-30T16:01:17;102360.98;;;17.35;91.30
68712;BME280;55690;51.566;19.198;2023-09-30T16:05:24;102363.84;;;17.33;91.33
68712;BME280;55690;51.566;19.198;2023-09-30T16:09:30;102371.98;;;17.11;93.65
68712;BME280;55690;51.566;19.198;2023-09-30T16:13:36;102377.48;;;17.11;93.37
68712;BME280;55690;51.566;19.198;2023-09-30T16:17:42;102382.88;;;17.00;92.63
68712;BME280;55690;51.566;19.198;2023-09-30T16:21:49;102382.46;;;16.93;93.34
68712;BME280;55690;51.566;19.198;2023-09-30T16:25:55;102396.02;;;16.83;94.83
68712;BME280;55690;51.566;19.198;2023-09-30T16:30:01;102401.52;;;16.71;95.53
68712;BME280;55690;51.566;19.198;2023-09-30T16:34:07;102412.16;;;16.50;95.91
68712;BME280;55690;51.566;19.198;2023-09-30T16:38:13;102416.58;;;16.40;95.78
68712;BME280;55690;51.566;19.198;2023-09-30T16:42:19;102422.59;;;16.19;96.48
68712;BME280;55690;51.566;19.198;2023-09-30T16:46:25;102424.56;;;16.17;95.16
68712;BME280;55690;51.566;19.198;2023-09-30T16:50:31;102424.13;;;15.98;97.37
68712;BME280;55690;51.566;19.198;2023-09-30T16:54:38;102419.49;;;15.86;96.00
68712;BME280;55690;51.566;19.198;2023-09-30T16:58:44;102421.74;;;15.67;98.76
68712;BME280;55690;51.566;19.198;2023-09-30T17:02:50;102423.66;;;15.52;98.65
68712;BME280;55690;51.566;19.198;2023-09-30T17:06:56;102438.67;;;15.32;99.30
68712;BME280;55690;51.566;19.198;2023-09-30T17:11:02;102423.94;;;15.20;98.70
68712;BME280;55690;51.566;19.198;2023-09-30T17:15:09;102434.86;;;15.08;99.71
68712;BME280;55690;51.566;19.198;2023-09-30T17:19:15;102435.76;;;14.94;100.00
68712;BME280;55690;51.566;19.198;2023-09-30T17:23:21;102450.22;;;14.82;100.00
68712;BME280;55690;51.566;19.198;2023-09-30T17:27:27;102448.20;;;14.71;99.93
68712;BME280;55690;51.566;19.198;2023-09-30T17:31:33;102468.03;;;14.60;100.00
68712;BME280;55690;51.566;19.198;2023-09-30T17:35:40;102457.96;;;14.47;100.00
68712;BME280;55690;51.566;19.198;2023-09-30T17:39:45;102465.80;;;14.37;100.00
68712;BME280;55690;51.566;19.198;2023-09-30T17:43:52;102458.68;;;14.35;100.00
68712;BME280;55690;51.566;19.198;2023-09-30T17:47:58;102462.98;;;14.24;100.00
68712;BME280;55690;51.566;19.198;2023-09-30T17:52:04;102460.45;;;14.21;100.00
68712;BME280;55690;51.566;19.198;2023-09-30T17:56:17;102465.69;;;14.10;100.00
68712;BME280;55690;51.566;19.198;2023-09-30T18:00:19;102464.30;;;14.03;100.00
68712;BME280;55690;51.566;19.198;2023-09-30T18:04:22;102466.43;;;13.98;100.00
68712;BME280;55690;51.566;19.198;2023-09-30T18:08:29;102456.94;;;13.89;100.00
68712;BME280;55690;51.566;19.198;2023-09-30T18:12:35;102465.71;;;13.80;100.00
68712;BME280;55690;51.566;19.198;2023-09-30T18:16:42;102468.29;;;13.68;100.00
68712;BME280;55690;51.566;19.198;2023-09-30T18:20:48;102457.73;;;13.61;100.00
68712;BME280;55690;51.566;19.198;2023-09-30T18:24:54;102461.79;;;13.54;100.00
68712;BME280;55690;51.566;19.198;2023-09-30T18:29:00;102465.84;;;13.47;100.00
68712;BME280;55690;51.566;19.198;2023-09-30T18:33:06;102468.27;;;13.38;100.00
68712;BME280;55690;51.566;19.198;2023-09-30T18:37:12;102475.57;;;13.37;100.00
68712;BME280;55690;51.566;19.198;2023-09-30T18:41:18;102481.55;;;13.28;100.00
68712;BME280;55690;51.566;19.198;2023-09-30T18:45:24;102480.31;;;13.18;100.00
68712;BME280;55690;51.566;19.198;2023-09-30T18:49:31;102474.98;;;13.15;100.00
68712;BME280;55690;51.566;19.198;2023-09-30T18:53:37;102482.73;;;13.07;100.00
68712;BME280;55690;51.566;19.198;2023-09-30T18:57:43;102485.63;;;13.04;100.00
68712;BME280;55690;51.566;19.198;2023-09-30T19:01:49;102494.10;;;12.99;100.00
68712;BME280;55690;51.566;19.198;2023-09-30T19:05:55;102498.94;;;12.94;100.00
68712;BME280;55690;51.566;19.198;2023-09-30T19:10:01;102502.50;;;12.79;100.00
68712;BME280;55690;51.566;19.198;2023-09-30T19:14:07;102505.64;;;12.71;100.00
68712;BME280;55690;51.566;19.198;2023-09-30T19:18:13;102496.29;;;12.59;100.00
68712;BME280;55690;51.566;19.198;2023-09-30T19:22:20;102497.33;;;12.57;100.00
68712;BME280;55690;51.566;19.198;2023-09-30T19:26:26;102501.22;;;12.53;100.00
68712;BME280;55690;51.566;19.198;2023-09-30T19:30:32;102504.20;;;12.48;100.00
68712;BME280;55690;51.566;19.198;2023-09-30T19:34:38;102509.08;;;12.42;100.00
68712;BME280;55690;51.566;19.198;2023-09-30T19:38:44;102505.88;;;12.33;100.00
68712;BME280;55690;51.566;19.198;2023-09-30T19:42:50;102504.36;;;12.28;100.00
68712;BME280;55690;51.566;19.198;2023-09-30T19:46:57;102493.06;;;12.18;100.00
68712;BME280;55690;51.566;19.198;2023-09-30T19:51:03;102504.76;;;12.20;100.00
68712;BME280;55690;51.566;19.198;2023-09-30T19:55:09;102497.87;;;12.13;100.00
68712;BME280;55690;51.566;19.198;2023-09-30T19:59:15;102494.38;;;12.11;100.00
68712;BME280;55690;51.566;19.198;2023-09-30T20:03:21;102509.20;;;12.06;100.00
68712;BME280;55690;51.566;19.198;2023-09-30T20:07:27;102518.55;;;12.00;100.00
68712;BME280;55690;51.566;19.198;2023-09-30T20:11:34;102513.27;;;11.97;100.00
68712;BME280;55690;51.566;19.198;2023-09-30T20:15:40;102511.28;;;12.01;100.00
68712;BME280;55690;51.566;19.198;2023-09-30T20:19:46;102518.30;;;11.87;100.00
68712;BME280;55690;51.566;19.198;2023-09-30T20:23:52;102518.77;;;11.78;100.00
68712;BME280;55690;51.566;19.198;2023-09-30T20:27:59;102512.72;;;11.72;100.00
68712;BME280;55690;51.566;19.198;2023-09-30T20:32:07;102515.77;;;11.65;100.00
68712;BME280;55690;51.566;19.198;2023-09-30T20:36:14;102530.41;;;11.63;100.00
68712;BME280;55690;51.566;19.198;2023-09-30T20:40:17;102525.20;;;11.58;100.00
68712;BME280;55690;51.566;19.198;2023-09-30T20:44:23;102532.70;;;11.53;100.00
68712;BME280;55690;51.566;19.198;2023-09-30T20:48:29;102533.96;;;11.46;100.00
68712;BME280;55690;51.566;19.198;2023-09-30T20:52:35;102534.77;;;11.48;100.00
68712;BME280;55690;51.566;19.198;2023-09-30T20:56:42;102538.22;;;11.52;100.00
68712;BME280;55690;51.566;19.198;2023-09-30T21:00:48;102543.97;;;11.46;100.00
68712;BME280;55690;51.566;19.198;2023-09-30T21:04:54;102548.59;;;11.44;100.00
68712;BME280;55690;51.566;19.198;2023-09-30T21:09:00;102548.74;;;11.41;100.00
68712;BME280;55690;51.566;19.198;2023-09-30T21:13:06;102549.77;;;11.38;100.00